XS10 weather

Northeast Methodist Hospital Heliport
Live Oak, Texas, United States

Public forecast

Using degrees Fahrenheit for public forecast. Weather courtesy of forecast.io.

METAR (pilot weather report)

Closest report is Randolph Air Force Base, 4.0 nm (7.4 km) ESE. Retrieved 2019/09/24 07:16 UTC (21 minutes ago):

KRND 240716Z AUTO 15003KT 10SM OVC014 25/23 A2998 RMK AO2 SLP143 $

TAF (pilot weather forecast)

Forecast is more than 12 hours old.

Closest forecast is Randolph Air Force Base, 4.0 nm (7.4 km) ESE. Retrieved 2019/09/23 17:09 UTC (14 hours ago):

TAF TAF KRND 231700Z 2317/2423 19008KT 9999 SCT030 QNH3000INS BECMG 2318/2319 19010KT 9999 SCT060 QNH2991INS BECMG 2407/2408 16006KT 9999 BKN008 QNH2996INS BECMG 2415/2416 18010KT 9999 SCT010 SCT035 QNH2990INS BECMG 2420/2421 16010G15KT 9999 VCTS SCT040CB QNH2982INS TX35/2321Z TN24/2412Z LAST NO AMDS AFT 2400 NEXT 2409